Strona główna
METAR-TAF:

METAR-TAF

Lotnisko :

Orange, Francja

Szerokość geograficzna: 44-08N, Długość geograficzna: 004-50E, wysokość: 60 m

Aktualna obserwacja pogody

Raport powstał 19 minut temu, godzina 11:30 UTC
Wiatr 13 kt od północno-północny zachód
Temperatura 33°C
Wilgotność 21%
Ciśnienie 1012 hPa
Widzialność 10 km lub więcej
Brak chmur poniżej 1500 m i brak chmur cumulonimbus

METAR: LFMO 181130Z AUTO 34013KT CAVOK 33/08 Q1012 NOSIG

czas: 13:49 (11:49 UTC)

Prognoza

Raport powstał 3 godziny i 49 minut temu, godzina 08:00 UTC
Prognoza ważna od 18 godzina 09 UTC do 19 godzina 09 UTC
Wiatr 15 kt od północno-północny zachód
Widzialność 10 km lub więcej
Brak chmur poniżej 1500 m i brak chmur cumulonimbus

TAF: LFMO 180800Z 1809/1909 34015KT CAVOK

Obserwacja i prognoza pogody dla ponad 4000 lotnisk (raport METAR i TAF).

Dostępne stacje oznaczono żółtymi i czerwonymi punktami na mapie.

Najedź kursorem aby zobaczyć nazwę stacji.

Kliknij aby zobaczyć obserwacje i prognozy pogody.

Aby zmienić mapę: kliknij na zielony przycisk z czarnym krzyżykiem, aby powiększyć; na zielony przycisk z myślnikiem, aby pomniejszyć; na zielone strzałki, aby przejść do map sąsiednich.


METAR-TAF: